Search for airport 
image banner adimage banner adimage banner ad
image banner ad

01NV - Lantana Ranch

Located in Yerington, United States

ICAO - 01NV, IATA -

Data provided by Airmate  

General information

Coordinates: N38°45'50" W119°1'38"
Elevation is 4600 feet MSL.
Magnetic variation is 15° East
View others Airports in Nevada

Operational data

Special qualification required
Current time UTC:
Current local time:
Weather at : KHTH - Hawthorne Industrial ( 42 km )
METAR: KHTH 092335Z AUTO 33015G21KT 10SM CLR 22/M10 A2991 RMK A01
View NOTAMs / SUP AIP / TFR affecting this airport [VIEW]
Communications frequencies: [VIEW]

Runways:

RWY identifierQFULength (ft)Width (ft)SurfaceLDA (ft)
18200060GRAVEL
36200060GRAVEL

Airport contact information

Address: Yerington United States

Satellite view of 01NV